Time;durP1;ratioP1;P1;durP2;ratioP2;P2;SDS_P1;SDS_P2;PMS_P1;PMS_P2;Temp;Humidity;BMP_temperature;BMP_pressure;BME280_temperature;BME280_humidity;BME280_pressure;Samples;Min_cycle;Max_cycle;Signal;HPM_P1;HPM_P2
2021/12/20 00:00:48;;;;;;;56.78;27.63;;;;;;;;;;5050064;28;20025;-80
2021/12/20 00:03:14;;;;;;;61.85;27.50;;;;;;;;;;5049116;28;20111;-80
2021/12/20 00:05:40;;;;;;;65.65;32.63;;;;;;;;;;5050160;28;20041;-80
2021/12/20 00:08:07;;;;;;;69.00;30.67;;;;;;;;;;5047907;28;20047;-80
2021/12/20 00:10:33;;;;;;;57.17;28.50;;;;;;;;;;5048481;28;20108;-80
2021/12/20 00:12:59;;;;;;;66.45;31.02;;;;;;;;;;5049747;28;20137;-80
2021/12/20 00:15:25;;;;;;;67.07;30.67;;;;;;;;;;5049565;28;20721;-80
2021/12/20 00:17:51;;;;;;;62.13;31.02;;;;;;;;;;5049494;28;20029;-79
2021/12/20 00:20:18;;;;;;;62.67;29.13;;;;;;;;;;5049485;28;20480;-80
2021/12/20 00:22:44;;;;;;;60.17;28.55;;;;;;;;;;5049686;28;20451;-80
2021/12/20 00:25:11;;;;;;;62.15;29.58;;;;;;;;;;5057011;28;20064;-80
2021/12/20 00:27:37;;;;;;;60.55;27.58;;;;;;;;;;5052538;28;20044;-80
2021/12/20 00:30:06;;;;;;;67.93;31.83;;;;;;;;;;5053159;28;20100;-80
2021/12/20 00:32:32;;;;;;;59.47;29.95;;;;;;;;;;5053356;28;20155;-80
2021/12/20 00:34:58;;;;;;;61.42;30.05;;;;;;;;;;5053097;28;20107;-80
2021/12/20 00:40:20;;;;;;;61.13;28.50;;;;;;;;;;5053217;28;20495;-80
2021/12/20 00:42:47;;;;;;;60.58;27.98;;;;;;;;;;5053581;28;20037;-80
2021/12/20 00:45:13;;;;;;;64.60;30.13;;;;;;;;;;5053024;28;20040;-80
2021/12/20 00:47:39;;;;;;;58.45;28.27;;;;;;;;;;5053258;28;20040;-80
2021/12/20 00:50:06;;;;;;;60.15;29.33;;;;;;;;;;5052712;28;20057;-80
2021/12/20 00:52:32;;;;;;;75.18;35.72;;;;;;;;;;5053141;28;20581;-80
2021/12/20 00:54:58;;;;;;;69.07;32.38;;;;;;;;;;5052799;28;20524;-80
2021/12/20 00:57:25;;;;;;;74.03;32.88;;;;;;;;;;5053209;28;20041;-80
2021/12/20 00:59:51;;;;;;;71.28;32.83;;;;;;;;;;5053289;28;20028;-80
2021/12/20 01:02:17;;;;;;;61.08;28.90;;;;;;;;;;5050144;28;20072;-80
2021/12/20 01:04:43;;;;;;;69.80;31.15;;;;;;;;;;5053009;28;20103;-80
2021/12/20 01:07:09;;;;;;;63.40;29.85;;;;;;;;;;5052476;28;20040;-80
2021/12/20 01:09:35;;;;;;;61.42;29.20;;;;;;;;;;5053087;28;20037;-80
2021/12/20 01:12:05;;;;;;;67.82;29.38;;;;;;;;;;5040680;28;20507;-80
2021/12/20 01:14:33;;;;;;;71.10;30.95;;;;;;;;;;5032945;28;20029;-80
2021/12/20 01:17:05;;;;;;;65.78;29.90;;;;;;;;;;5042381;28;20438;-80
2021/12/20 01:19:32;;;;;;;61.20;29.30;;;;;;;;;;5052916;28;20025;-80
2021/12/20 01:21:58;;;;;;;71.00;31.15;;;;;;;;;;5044195;28;20045;-80
2021/12/20 01:24:24;;;;;;;64.57;30.05;;;;;;;;;;5045304;28;20107;-80
2021/12/20 01:26:50;;;;;;;64.65;28.83;;;;;;;;;;5052041;28;20108;-80
2021/12/20 01:29:16;;;;;;;61.65;28.00;;;;;;;;;;5052449;28;20029;-79
2021/12/20 01:31:42;;;;;;;63.60;29.15;;;;;;;;;;5052335;28;20411;-80
2021/12/20 01:34:08;;;;;;;76.57;33.47;;;;;;;;;;5052458;28;20060;-79
2021/12/20 01:36:34;;;;;;;67.47;31.08;;;;;;;;;;5051963;28;20568;-80
2021/12/20 01:39:00;;;;;;;75.18;32.15;;;;;;;;;;5051192;28;20033;-80
2021/12/20 01:41:26;;;;;;;66.55;31.42;;;;;;;;;;5051778;28;20037;-81
2021/12/20 01:43:56;;;;;;;66.43;30.20;;;;;;;;;;5052099;28;20100;-80
2021/12/20 01:46:23;;;;;;;66.78;30.33;;;;;;;;;;5051464;28;20687;-80
2021/12/20 01:48:49;;;;;;;63.33;30.05;;;;;;;;;;5052120;28;20025;-80
2021/12/20 01:51:34;;;;;;;62.60;28.63;;;;;;;;;;5051272;28;20067;-80
2021/12/20 01:54:00;;;;;;;67.72;29.00;;;;;;;;;;5051747;28;20115;-80
2021/12/20 01:56:27;;;;;;;64.97;29.88;;;;;;;;;;5051400;28;20559;-79
2021/12/20 01:59:00;;;;;;;66.22;29.35;;;;;;;;;;5051268;28;20028;-80
2021/12/20 02:01:26;;;;;;;71.93;30.52;;;;;;;;;;5031862;28;20052;-80
2021/12/20 02:03:57;;;;;;;64.68;30.13;;;;;;;;;;5031903;28;20033;-80
2021/12/20 02:06:34;;;;;;;72.65;32.15;;;;;;;;;;5035701;28;20120;-80
2021/12/20 02:09:01;;;;;;;75.78;33.17;;;;;;;;;;5051976;28;20033;-80
2021/12/20 02:11:27;;;;;;;62.45;29.88;;;;;;;;;;5051575;28;20036;-80
2021/12/20 02:13:54;;;;;;;68.55;30.83;;;;;;;;;;5051193;28;20032;-80
2021/12/20 02:16:20;;;;;;;62.47;28.58;;;;;;;;;;5051703;28;20033;-80
2021/12/20 02:18:48;;;;;;;69.97;29.75;;;;;;;;;;5051230;28;20040;-80
2021/12/20 02:21:14;;;;;;;76.65;34.30;;;;;;;;;;5051624;28;20033;-79
2021/12/20 02:23:40;;;;;;;62.50;29.27;;;;;;;;;;5051130;28;20827;-80
2021/12/20 02:26:06;;;;;;;67.95;29.05;;;;;;;;;;5052442;28;20044;-80
2021/12/20 02:28:40;;;;;;;69.15;27.70;;;;;;;;;;5051418;28;20383;-80
2021/12/20 02:38:59;;;;;;;57.22;25.65;;;;;;;;;;5038593;28;20462;-80
2021/12/20 02:41:32;;;;;;;63.53;28.02;;;;;;;;;;5051267;28;20044;-80
2021/12/20 02:44:04;;;;;;;63.03;28.88;;;;;;;;;;5050538;28;20029;-80
2021/12/20 02:49:11;;;;;;;66.13;29.50;;;;;;;;;;5050884;28;20040;-80
2021/12/20 02:51:37;;;;;;;67.07;29.00;;;;;;;;;;5051356;28;20060;-80
2021/12/20 02:54:06;;;;;;;67.88;29.73;;;;;;;;;;5050490;28;20033;-80
2021/12/20 02:56:32;;;;;;;62.63;27.77;;;;;;;;;;5050963;28;20760;-80
2021/12/20 02:58:58;;;;;;;72.68;31.13;;;;;;;;;;5050103;28;20353;-80
2021/12/20 03:01:24;;;;;;;64.30;28.42;;;;;;;;;;5050647;28;20119;-80
2021/12/20 03:03:52;;;;;;;62.17;28.55;;;;;;;;;;5050908;28;20035;-80
2021/12/20 03:06:18;;;;;;;61.55;27.63;;;;;;;;;;5050441;28;20122;-80
2021/12/20 03:08:47;;;;;;;63.28;29.17;;;;;;;;;;5050819;28;20040;-80
2021/12/20 03:11:13;;;;;;;58.15;25.42;;;;;;;;;;5050284;28;20041;-80
2021/12/20 03:13:40;;;;;;;65.38;29.63;;;;;;;;;;5050659;28;20071;-80
2021/12/20 03:16:06;;;;;;;60.42;26.35;;;;;;;;;;5065433;28;20024;-80
2021/12/20 03:18:32;;;;;;;59.50;28.40;;;;;;;;;;5070316;28;20402;-80
2021/12/20 03:20:58;;;;;;;66.35;28.80;;;;;;;;;;5057917;28;20379;-80
2021/12/20 03:23:25;;;;;;;63.00;27.17;;;;;;;;;;5050647;28;20407;-80
2021/12/20 03:25:51;;;;;;;63.45;28.65;;;;;;;;;;5058971;28;20060;-80
2021/12/20 03:28:17;;;;;;;59.38;27.15;;;;;;;;;;5050629;28;20065;-80
2021/12/20 03:30:44;;;;;;;58.78;26.92;;;;;;;;;;5050069;28;20032;-79
2021/12/20 03:33:10;;;;;;;66.97;28.50;;;;;;;;;;5050449;28;20029;-80
2021/12/20 03:35:36;;;;;;;63.28;26.23;;;;;;;;;;5050290;28;20036;-80
2021/12/20 03:38:02;;;;;;;61.40;26.85;;;;;;;;;;5050291;28;20032;-80
2021/12/20 03:40:28;;;;;;;58.22;25.83;;;;;;;;;;5050129;28;20638;-80
2021/12/20 03:42:55;;;;;;;55.92;26.50;;;;;;;;;;5050216;28;20048;-80
2021/12/20 03:45:21;;;;;;;70.28;30.58;;;;;;;;;;5049909;28;20036;-80
2021/12/20 03:47:47;;;;;;;58.05;26.27;;;;;;;;;;5049774;28;20044;-80
2021/12/20 03:50:13;;;;;;;56.63;26.15;;;;;;;;;;5049805;28;20115;-80
2021/12/20 03:52:39;;;;;;;61.35;27.50;;;;;;;;;;5032417;28;20088;-80
2021/12/20 03:55:06;;;;;;;59.28;28.35;;;;;;;;;;5048287;28;20055;-80
2021/12/20 03:57:33;;;;;;;60.25;28.27;;;;;;;;;;5049340;28;20048;-80
2021/12/20 03:59:59;;;;;;;67.82;28.38;;;;;;;;;;5049513;28;20025;-79
2021/12/20 04:02:26;;;;;;;67.20;29.92;;;;;;;;;;5036760;28;20389;-79
2021/12/20 04:04:52;;;;;;;60.95;27.52;;;;;;;;;;5029827;28;20037;-80
2021/12/20 04:07:18;;;;;;;53.08;26.08;;;;;;;;;;5039356;28;20041;-79
2021/12/20 04:09:44;;;;;;;56.25;24.58;;;;;;;;;;5050392;28;20040;-80
2021/12/20 04:12:10;;;;;;;60.42;26.58;;;;;;;;;;5049742;28;20045;-80
2021/12/20 04:14:36;;;;;;;62.85;26.80;;;;;;;;;;5050273;28;20029;-79
2021/12/20 04:17:03;;;;;;;63.58;30.00;;;;;;;;;;5045061;28;20033;-80
2021/12/20 04:19:29;;;;;;;55.63;26.52;;;;;;;;;;5029634;28;20040;-80
2021/12/20 04:21:55;;;;;;;54.78;25.27;;;;;;;;;;5031257;28;20037;-80
2021/12/20 04:24:21;;;;;;;50.35;23.00;;;;;;;;;;5049444;28;20163;-80
2021/12/20 04:26:47;;;;;;;62.42;26.98;;;;;;;;;;5049687;28;20470;-79
2021/12/20 04:29:13;;;;;;;52.30;25.38;;;;;;;;;;5048851;28;20056;-79
2021/12/20 04:31:39;;;;;;;61.45;25.65;;;;;;;;;;5049500;28;20052;-79
2021/12/20 04:34:05;;;;;;;56.47;25.58;;;;;;;;;;5048947;28;20476;-80
2021/12/20 04:36:33;;;;;;;64.53;29.63;;;;;;;;;;5049729;28;20043;-80
2021/12/20 04:39:00;;;;;;;61.50;28.70;;;;;;;;;;5049011;28;20025;-80
2021/12/20 04:41:26;;;;;;;60.70;26.63;;;;;;;;;;5049621;28;20755;-79
2021/12/20 04:43:52;;;;;;;58.33;25.17;;;;;;;;;;5047208;28;20075;-79
2021/12/20 04:46:18;;;;;;;66.13;30.27;;;;;;;;;;5049367;28;20113;-80
2021/12/20 04:48:44;;;;;;;67.72;30.67;;;;;;;;;;5049067;28;20129;-80
2021/12/20 04:51:10;;;;;;;59.55;28.15;;;;;;;;;;5049213;28;20116;-80
2021/12/20 04:53:36;;;;;;;62.75;28.65;;;;;;;;;;5047771;28;20037;-79
2021/12/20 04:56:02;;;;;;;66.43;30.73;;;;;;;;;;5045123;28;20033;-80
2021/12/20 04:58:28;;;;;;;67.93;29.98;;;;;;;;;;5035775;28;20376;-80
2021/12/20 05:00:54;;;;;;;62.22;26.83;;;;;;;;;;5041017;28;20025;-80
2021/12/20 05:03:20;;;;;;;63.13;25.83;;;;;;;;;;5048894;28;20037;-80
2021/12/20 05:05:46;;;;;;;52.67;23.05;;;;;;;;;;5049314;28;20756;-80
2021/12/20 05:08:13;;;;;;;53.15;24.23;;;;;;;;;;5049377;28;20044;-80
2021/12/20 05:10:41;;;;;;;53.95;23.80;;;;;;;;;;5030155;28;20033;-80
2021/12/20 05:13:08;;;;;;;59.55;22.80;;;;;;;;;;5029882;28;20029;-80
2021/12/20 05:15:36;;;;;;;41.58;20.20;;;;;;;;;;5049851;28;20399;-80
2021/12/20 05:18:02;;;;;;;52.40;22.10;;;;;;;;;;5040108;28;20939;-79
2021/12/20 05:20:28;;;;;;;55.38;21.23;;;;;;;;;;5033204;28;20038;-80
2021/12/20 05:22:55;;;;;;;60.35;23.20;;;;;;;;;;5049062;28;20456;-80
2021/12/20 05:25:21;;;;;;;49.85;22.13;;;;;;;;;;5033247;28;20041;-80
2021/12/20 05:27:47;;;;;;;52.30;21.23;;;;;;;;;;5040392;28;20095;-79
2021/12/20 05:30:14;;;;;;;46.03;19.95;;;;;;;;;;5052628;28;20044;-80
2021/12/20 05:32:40;;;;;;;52.63;21.98;;;;;;;;;;5051734;28;20471;-80
2021/12/20 05:35:07;;;;;;;52.90;21.00;;;;;;;;;;5052702;28;20040;-80
2021/12/20 05:37:33;;;;;;;48.60;21.02;;;;;;;;;;5052102;28;20025;-80
2021/12/20 05:39:59;;;;;;;50.03;20.60;;;;;;;;;;5052808;28;20040;-79
2021/12/20 05:42:25;;;;;;;42.05;19.25;;;;;;;;;;5051936;28;20590;-80
2021/12/20 05:44:52;;;;;;;59.25;21.38;;;;;;;;;;5052313;28;20071;-80
2021/12/20 05:47:18;;;;;;;41.08;18.67;;;;;;;;;;5052035;28;20037;-80
2021/12/20 05:49:44;;;;;;;41.22;18.85;;;;;;;;;;5037845;28;20055;-80
2021/12/20 05:52:10;;;;;;;44.00;19.00;;;;;;;;;;5050252;28;20392;-80
2021/12/20 05:54:36;;;;;;;38.95;18.13;;;;;;;;;;5052141;28;20048;-80
2021/12/20 05:57:03;;;;;;;41.00;18.23;;;;;;;;;;5051928;28;20043;-80
2021/12/20 05:59:29;;;;;;;40.45;17.60;;;;;;;;;;5051763;28;20029;-80
2021/12/20 06:01:55;;;;;;;34.97;17.63;;;;;;;;;;5051565;28;20033;-80
2021/12/20 06:04:21;;;;;;;37.05;17.23;;;;;;;;;;5051338;28;20044;-80
2021/12/20 06:06:47;;;;;;;42.70;19.10;;;;;;;;;;5051843;28;20083;-80
2021/12/20 06:09:13;;;;;;;43.80;19.00;;;;;;;;;;5051664;28;20078;-80
2021/12/20 06:11:39;;;;;;;41.53;18.75;;;;;;;;;;5051109;28;20033;-80
2021/12/20 06:14:05;;;;;;;51.72;23.15;;;;;;;;;;5050598;28;20044;-80
2021/12/20 06:16:31;;;;;;;45.58;22.08;;;;;;;;;;5058766;28;20116;-79
2021/12/20 06:18:57;;;;;;;51.22;22.23;;;;;;;;;;5060543;28;20498;-80
2021/12/20 06:21:23;;;;;;;51.80;23.20;;;;;;;;;;5062983;28;20029;-79
2021/12/20 06:23:49;;;;;;;53.08;25.13;;;;;;;;;;5060644;28;20459;-79
2021/12/20 06:26:15;;;;;;;45.80;21.33;;;;;;;;;;5053440;28;20448;-79
2021/12/20 06:28:42;;;;;;;51.15;23.27;;;;;;;;;;5056240;28;20082;-79
2021/12/20 06:31:08;;;;;;;66.13;30.98;;;;;;;;;;5062952;28;20388;-80
2021/12/20 06:33:34;;;;;;;61.17;27.55;;;;;;;;;;5049719;28;20102;-80
2021/12/20 06:36:00;;;;;;;57.92;25.25;;;;;;;;;;5051400;28;20032;-80
2021/12/20 06:38:26;;;;;;;62.45;26.48;;;;;;;;;;5051440;28;20115;-80
2021/12/20 06:40:53;;;;;;;58.75;24.13;;;;;;;;;;5053830;28;20099;-80
2021/12/20 06:43:19;;;;;;;58.20;28.55;;;;;;;;;;5053154;28;20037;-80
2021/12/20 06:45:46;;;;;;;56.00;27.17;;;;;;;;;;5051656;28;20028;-80
2021/12/20 06:48:12;;;;;;;65.85;28.27;;;;;;;;;;5051274;28;20541;-80
2021/12/20 06:50:38;;;;;;;51.05;21.85;;;;;;;;;;5056171;28;20123;-79
2021/12/20 06:53:07;;;;;;;57.92;24.98;;;;;;;;;;5039691;28;20112;-80
2021/12/20 06:55:34;;;;;;;59.00;24.95;;;;;;;;;;5050382;28;20104;-80
2021/12/20 06:58:00;;;;;;;61.13;25.73;;;;;;;;;;5040174;28;20471;-80
2021/12/20 07:00:27;;;;;;;57.72;24.88;;;;;;;;;;5057697;28;20029;-80
2021/12/20 07:02:53;;;;;;;57.47;25.05;;;;;;;;;;5050899;28;20430;-79
2021/12/20 07:05:19;;;;;;;59.53;25.42;;;;;;;;;;5050906;28;20033;-80
2021/12/20 07:07:45;;;;;;;63.92;27.90;;;;;;;;;;5068971;28;20063;-80
2021/12/20 07:10:11;;;;;;;59.10;24.92;;;;;;;;;;5052012;28;20464;-80
2021/12/20 07:12:38;;;;;;;64.80;27.35;;;;;;;;;;5051179;28;20037;-79
2021/12/20 07:15:05;;;;;;;64.18;26.42;;;;;;;;;;5054814;28;20021;-81
2021/12/20 07:17:31;;;;;;;64.07;28.30;;;;;;;;;;5051859;28;20494;-81
2021/12/20 07:19:58;;;;;;;63.55;27.80;;;;;;;;;;5043277;28;20026;-81
2021/12/20 07:22:24;;;;;;;62.28;27.55;;;;;;;;;;5037323;28;20056;-81
2021/12/20 07:24:50;;;;;;;72.68;27.77;;;;;;;;;;5045570;28;20094;-82
2021/12/20 07:27:19;;;;;;;69.30;27.55;;;;;;;;;;5050712;28;20045;-80
2021/12/20 07:29:46;;;;;;;63.28;26.52;;;;;;;;;;5045641;28;20040;-80
2021/12/20 07:32:12;;;;;;;58.13;25.00;;;;;;;;;;5050080;28;20041;-81
2021/12/20 07:34:39;;;;;;;57.63;24.08;;;;;;;;;;5051006;28;20075;-81
2021/12/20 07:37:05;;;;;;;60.50;25.55;;;;;;;;;;5048766;28;20068;-80
2021/12/20 07:39:31;;;;;;;58.80;25.50;;;;;;;;;;5045130;28;20499;-81
2021/12/20 07:41:58;;;;;;;57.33;23.15;;;;;;;;;;5044898;28;20044;-81
2021/12/20 07:44:24;;;;;;;58.00;25.08;;;;;;;;;;5053942;28;20604;-81
2021/12/20 07:46:50;;;;;;;58.30;24.80;;;;;;;;;;5052325;28;20037;-81
2021/12/20 07:49:17;;;;;;;55.25;23.17;;;;;;;;;;5049786;28;20082;-79
2021/12/20 07:51:43;;;;;;;54.67;24.48;;;;;;;;;;5049526;28;20391;-80
2021/12/20 07:54:09;;;;;;;58.40;25.00;;;;;;;;;;5048972;28;20056;-80
2021/12/20 07:56:35;;;;;;;62.25;24.88;;;;;;;;;;5042658;28;20026;-80
2021/12/20 07:59:01;;;;;;;62.72;24.27;;;;;;;;;;5049328;28;20025;-79
2021/12/20 08:01:27;;;;;;;57.70;23.77;;;;;;;;;;5054333;28;20036;-79
2021/12/20 08:03:54;;;;;;;51.88;23.20;;;;;;;;;;5051297;28;20029;-79
2021/12/20 08:06:20;;;;;;;57.47;24.48;;;;;;;;;;5047937;28;20030;-78
2021/12/20 08:08:46;;;;;;;56.33;24.70;;;;;;;;;;5046590;28;20076;-79
2021/12/20 08:11:12;;;;;;;67.85;26.98;;;;;;;;;;5048910;28;20054;-79
2021/12/20 08:13:44;;;;;;;66.85;27.90;;;;;;;;;;5050750;28;20155;-79
2021/12/20 08:16:11;;;;;;;58.63;26.13;;;;;;;;;;5047345;28;20029;-79
2021/12/20 08:18:37;;;;;;;63.65;27.13;;;;;;;;;;5036887;28;20032;-79
2021/12/20 08:21:03;;;;;;;54.63;23.38;;;;;;;;;;5051732;28;20043;-79
2021/12/20 08:23:29;;;;;;;69.43;28.35;;;;;;;;;;5050869;28;20671;-79
2021/12/20 08:25:55;;;;;;;60.60;23.02;;;;;;;;;;5051765;28;20036;-79
2021/12/20 08:28:21;;;;;;;151.32;54.83;;;;;;;;;;5051381;28;20107;-79
2021/12/20 08:30:48;;;;;;;142.98;52.13;;;;;;;;;;5051584;28;20037;-79
2021/12/20 08:33:14;;;;;;;62.70;24.48;;;;;;;;;;5051051;28;20480;-79
2021/12/20 08:35:40;;;;;;;55.83;24.02;;;;;;;;;;5051808;28;20052;-79
2021/12/20 08:38:06;;;;;;;58.05;25.13;;;;;;;;;;5039935;28;20036;-78
2021/12/20 08:40:32;;;;;;;56.10;25.08;;;;;;;;;;5031698;28;20029;-78
2021/12/20 08:42:58;;;;;;;90.57;41.97;;;;;;;;;;5030684;28;20384;-78
2021/12/20 08:45:24;;;;;;;51.65;23.65;;;;;;;;;;5031194;28;20039;-79
2021/12/20 08:47:51;;;;;;;59.70;25.00;;;;;;;;;;5033748;28;20022;-79
2021/12/20 08:50:18;;;;;;;59.80;26.50;;;;;;;;;;5055128;28;20467;-78
2021/12/20 08:52:44;;;;;;;66.60;27.55;;;;;;;;;;5054631;28;20074;-79
2021/12/20 08:55:11;;;;;;;87.22;36.15;;;;;;;;;;5055480;28;20072;-79
2021/12/20 08:57:37;;;;;;;76.10;31.80;;;;;;;;;;5054713;28;20353;-79
2021/12/20 09:00:05;;;;;;;86.50;32.63;;;;;;;;;;5055360;28;20033;-79
2021/12/20 09:02:31;;;;;;;53.17;24.45;;;;;;;;;;5054724;28;20036;-79
2021/12/20 09:04:57;;;;;;;55.72;22.40;;;;;;;;;;5054940;28;20037;-79
2021/12/20 09:07:23;;;;;;;51.50;21.88;;;;;;;;;;5054805;28;20383;-78
2021/12/20 09:09:49;;;;;;;63.53;26.25;;;;;;;;;;5055011;28;20452;-78
2021/12/20 09:12:18;;;;;;;57.25;24.48;;;;;;;;;;5054293;28;20794;-79
2021/12/20 09:14:44;;;;;;;50.65;23.35;;;;;;;;;;5053499;28;20029;-79
2021/12/20 09:17:10;;;;;;;55.90;24.05;;;;;;;;;;5054291;28;20075;-79
2021/12/20 09:19:37;;;;;;;55.03;25.52;;;;;;;;;;5054035;28;20101;-78
2021/12/20 09:22:06;;;;;;;55.08;22.67;;;;;;;;;;5053836;28;20025;-79
2021/12/20 09:24:33;;;;;;;52.72;22.63;;;;;;;;;;5054631;28;20037;-79
2021/12/20 09:26:59;;;;;;;46.75;21.35;;;;;;;;;;5054572;28;20025;-79
2021/12/20 09:29:25;;;;;;;46.25;22.50;;;;;;;;;;5054796;28;20074;-79
2021/12/20 09:31:51;;;;;;;38.95;17.83;;;;;;;;;;5054562;28;20028;-79
2021/12/20 09:34:18;;;;;;;41.63;17.38;;;;;;;;;;5060236;28;20032;-79
2021/12/20 09:36:44;;;;;;;41.30;16.77;;;;;;;;;;5064919;28;20367;-79
2021/12/20 09:39:11;;;;;;;46.85;19.90;;;;;;;;;;5068058;28;20444;-79
2021/12/20 09:44:07;;;;;;;42.92;19.05;;;;;;;;;;5054815;28;20047;-79
2021/12/20 09:46:33;;;;;;;46.67;19.65;;;;;;;;;;5053891;28;20494;-79
2021/12/20 09:49:00;;;;;;;43.83;19.83;;;;;;;;;;5052467;28;20495;-78
2021/12/20 09:51:26;;;;;;;46.97;21.50;;;;;;;;;;5054372;28;20048;-79
2021/12/20 09:53:52;;;;;;;50.10;21.92;;;;;;;;;;5054048;28;20075;-79
2021/12/20 09:56:19;;;;;;;52.97;22.77;;;;;;;;;;5054093;28;20517;-79
2021/12/20 09:58:46;;;;;;;47.42;22.10;;;;;;;;;;5050988;28;20035;-79
2021/12/20 10:01:13;;;;;;;49.72;21.45;;;;;;;;;;5033908;28;20035;-79
2021/12/20 10:03:40;;;;;;;61.20;25.88;;;;;;;;;;5033887;28;20758;-79
2021/12/20 10:06:06;;;;;;;61.65;25.58;;;;;;;;;;5032741;28;20515;-79
2021/12/20 10:08:34;;;;;;;60.65;27.27;;;;;;;;;;5041876;28;20028;-79
2021/12/20 10:11:17;;;;;;;64.15;27.70;;;;;;;;;;5054777;28;20029;-78
2021/12/20 10:13:43;;;;;;;;;;;;;;;;;;5054532;28;20032;-79
2021/12/20 10:16:16;;;;;;;56.60;26.63;;;;;;;;;;5055723;28;19908;-79
2021/12/20 10:18:43;;;;;;;53.85;23.45;;;;;;;;;;5068528;28;20040;-79
2021/12/20 10:21:09;;;;;;;60.72;27.08;;;;;;;;;;5053693;28;20032;-79
2021/12/20 10:23:42;;;;;;;59.30;26.33;;;;;;;;;;5053030;28;20041;-79
2021/12/20 10:26:12;;;;;;;66.80;27.55;;;;;;;;;;5049369;28;20029;-79
2021/12/20 10:28:39;;;;;;;59.97;25.00;;;;;;;;;;5053006;28;20033;-78
2021/12/20 10:31:08;;;;;;;57.78;25.63;;;;;;;;;;5038958;28;20033;-79
2021/12/20 10:33:34;;;;;;;59.30;27.75;;;;;;;;;;5033386;28;20044;-78
2021/12/20 10:36:01;;;;;;;62.58;25.27;;;;;;;;;;5050822;28;20029;-79
2021/12/20 10:38:33;;;;;;;62.70;26.27;;;;;;;;;;5053301;28;20079;-79
2021/12/20 10:41:33;;;;;;;57.80;25.17;;;;;;;;;;5052814;28;20104;-79
2021/12/20 10:44:02;;;;;;;66.75;27.55;;;;;;;;;;5056374;28;20136;-79
2021/12/20 10:46:29;;;;;;;56.03;23.67;;;;;;;;;;5064204;28;20037;-79
2021/12/20 10:49:00;;;;;;;56.97;25.05;;;;;;;;;;5056448;28;20376;-79
2021/12/20 10:51:26;;;;;;;55.80;24.83;;;;;;;;;;5057395;28;20049;-79
2021/12/20 10:54:03;;;;;;;59.10;25.33;;;;;;;;;;5032974;28;20148;-79
2021/12/20 10:56:30;;;;;;;58.40;25.23;;;;;;;;;;5049373;28;20029;-79
2021/12/20 10:58:57;;;;;;;51.85;24.70;;;;;;;;;;5052448;28;20029;-78
2021/12/20 11:02:00;;;;;;;65.45;27.42;;;;;;;;;;5051847;28;20060;-79
2021/12/20 11:04:27;;;;;;;53.72;22.70;;;;;;;;;;5051454;28;20124;-79
2021/12/20 11:09:35;;;;;;;60.22;25.45;;;;;;;;;;5068905;23;20035;-78
2021/12/20 11:12:03;;;;;;;61.65;27.67;;;;;;;;;;5071455;28;20115;-78
2021/12/20 11:14:31;;;;;;;53.25;23.42;;;;;;;;;;5062816;28;20044;-79
2021/12/20 11:16:58;;;;;;;58.13;25.02;;;;;;;;;;5056624;28;20036;-79
2021/12/20 11:19:24;;;;;;;63.47;26.80;;;;;;;;;;5071846;28;20025;-78
2021/12/20 11:22:01;;;;;;;65.05;29.38;;;;;;;;;;5065139;28;20383;-79
2021/12/20 11:24:49;;;;;;;62.55;25.58;;;;;;;;;;5064467;28;20043;-79
2021/12/20 11:27:17;;;;;;;59.33;25.58;;;;;;;;;;5051356;28;20103;-79
2021/12/20 11:29:45;;;;;;;62.42;27.15;;;;;;;;;;5051706;28;20033;-79
2021/12/20 11:32:11;;;;;;;58.50;28.95;;;;;;;;;;5053803;28;20044;-79
2021/12/20 11:34:38;;;;;;;58.75;23.90;;;;;;;;;;5055700;28;20037;-78
2021/12/20 11:37:05;;;;;;;62.78;25.15;;;;;;;;;;5058419;28;20758;-79
2021/12/20 11:39:31;;;;;;;56.80;24.58;;;;;;;;;;5070836;28;20535;-79
2021/12/20 11:41:57;;;;;;;60.03;25.88;;;;;;;;;;5063742;28;20033;-78
2021/12/20 11:44:25;;;;;;;67.18;28.05;;;;;;;;;;5055612;28;20035;-78
2021/12/20 11:47:00;;;;;;;59.28;26.02;;;;;;;;;;5062410;28;20037;-79
2021/12/20 11:49:26;;;;;;;57.20;23.63;;;;;;;;;;5057486;28;20020;-79
2021/12/20 11:51:55;;;;;;;57.65;25.83;;;;;;;;;;5070354;28;20075;-78
2021/12/20 11:54:41;;;;;;;62.45;25.95;;;;;;;;;;5057580;28;20056;-79
2021/12/20 11:57:27;;;;;;;93.68;39.20;;;;;;;;;;5068591;28;20402;-77
2021/12/20 11:59:55;;;;;;;92.60;39.22;;;;;;;;;;5066460;28;20028;-80
2021/12/20 12:02:22;;;;;;;84.28;39.42;;;;;;;;;;5065336;28;20037;-81
2021/12/20 12:04:55;;;;;;;66.57;29.23;;;;;;;;;;5066193;28;20068;-81
2021/12/20 12:07:22;;;;;;;61.92;28.20;;;;;;;;;;5060851;28;20036;-81
2021/12/20 12:09:59;;;;;;;74.90;31.85;;;;;;;;;;5056775;28;20052;-80
2021/12/20 12:12:26;;;;;;;67.97;28.60;;;;;;;;;;5032571;28;20698;-81
2021/12/20 12:15:13;;;;;;;63.60;29.08;;;;;;;;;;5033673;28;20036;-81
2021/12/20 12:17:54;;;;;;;71.70;30.98;;;;;;;;;;5049863;28;20037;-81
2021/12/20 12:20:39;;;;;;;62.13;28.05;;;;;;;;;;5049117;28;20430;-81
2021/12/20 12:23:32;;;;;;;70.13;30.77;;;;;;;;;;5040164;28;20041;-81
2021/12/20 12:25:59;;;;;;;105.65;44.40;;;;;;;;;;5039475;28;20037;-81
2021/12/20 12:28:26;;;;;;;84.22;37.85;;;;;;;;;;5051412;28;20037;-81
2021/12/20 12:30:57;;;;;;;77.18;33.22;;;;;;;;;;5050554;28;20064;-81
2021/12/20 12:33:24;;;;;;;90.50;37.08;;;;;;;;;;5041954;28;20034;-81
2021/12/20 12:35:51;;;;;;;68.47;29.30;;;;;;;;;;5042281;28;20035;-81
2021/12/20 12:38:19;;;;;;;65.03;28.30;;;;;;;;;;5053647;28;20235;-81
2021/12/20 12:40:49;;;;;;;74.15;33.05;;;;;;;;;;5053289;28;20039;-81
2021/12/20 12:43:16;;;;;;;67.85;30.02;;;;;;;;;;5053501;28;20033;-81
2021/12/20 12:45:56;;;;;;;58.40;25.73;;;;;;;;;;5053235;28;20064;-81
2021/12/20 12:48:40;;;;;;;61.80;27.48;;;;;;;;;;5053675;28;20036;-81
2021/12/20 12:51:06;;;;;;;61.55;29.08;;;;;;;;;;5049608;28;20071;-81
2021/12/20 12:53:39;;;;;;;74.53;34.22;;;;;;;;;;5034543;28;20112;-81
2021/12/20 12:56:26;;;;;;;61.92;29.05;;;;;;;;;;5045212;28;20079;-81
2021/12/20 12:59:11;;;;;;;59.85;26.15;;;;;;;;;;5049810;28;20158;-81
2021/12/20 13:01:42;;;;;;;55.33;26.33;;;;;;;;;;5039019;28;20487;-81
2021/12/20 13:04:08;;;;;;;59.53;28.23;;;;;;;;;;5053404;28;20033;-81
2021/12/20 13:06:34;;;;;;;60.95;28.67;;;;;;;;;;5050364;28;20039;-81
2021/12/20 13:09:00;;;;;;;58.05;25.95;;;;;;;;;;5054093;28;20124;-82
2021/12/20 13:11:29;;;;;;;66.93;29.38;;;;;;;;;;5054018;28;20388;-82
2021/12/20 13:14:12;;;;;;;72.68;27.23;;;;;;;;;;5053261;28;20029;-80
2021/12/20 13:16:43;;;;;;;58.85;26.30;;;;;;;;;;5049564;28;20035;-81
2021/12/20 13:19:10;;;;;;;62.05;29.40;;;;;;;;;;5049538;28;20057;-82
2021/12/20 13:21:49;;;;;;;65.22;28.98;;;;;;;;;;5057517;28;20040;-81
2021/12/20 13:24:16;;;;;;;67.93;31.40;;;;;;;;;;5052755;28;20079;-80
2021/12/20 13:26:42;;;;;;;68.50;32.50;;;;;;;;;;5052428;28;20120;-81
2021/12/20 13:29:14;;;;;;;63.63;28.75;;;;;;;;;;5052918;28;20132;-80
2021/12/20 13:31:40;;;;;;;66.55;31.00;;;;;;;;;;5044597;28;20037;-81
2021/12/20 13:34:11;;;;;;;69.68;30.95;;;;;;;;;;5037662;28;20777;-81
2021/12/20 13:36:37;;;;;;;71.63;30.05;;;;;;;;;;5045238;28;20036;-80
2021/12/20 13:39:07;;;;;;;70.68;31.25;;;;;;;;;;5047526;28;20028;-80
2021/12/20 13:41:34;;;;;;;65.35;30.50;;;;;;;;;;5044322;28;20422;-80
2021/12/20 13:44:03;;;;;;;66.80;29.23;;;;;;;;;;5046642;28;20037;-79
2021/12/20 13:49:04;;;;;;;72.75;32.25;;;;;;;;;;5043013;28;20124;-81
2021/12/20 13:51:52;;;;;;;71.68;29.92;;;;;;;;;;5049613;28;20037;-80
2021/12/20 13:54:18;;;;;;;65.72;29.13;;;;;;;;;;5023800;28;20044;-79
2021/12/20 13:56:44;;;;;;;72.93;29.85;;;;;;;;;;5045756;28;20032;-80
2021/12/20 13:59:11;;;;;;;76.13;34.28;;;;;;;;;;5051171;28;20057;-79
2021/12/20 14:01:37;;;;;;;71.72;31.10;;;;;;;;;;5034829;28;20063;-80
2021/12/20 14:04:03;;;;;;;69.50;30.70;;;;;;;;;;5048903;28;20024;-80
2021/12/20 14:06:37;;;;;;;69.88;32.05;;;;;;;;;;5045499;28;20033;-80
2021/12/20 14:09:23;;;;;;;76.10;33.95;;;;;;;;;;5037994;28;20036;-80
2021/12/20 14:12:05;;;;;;;77.93;31.88;;;;;;;;;;5011751;28;20056;-80
2021/12/20 14:14:32;;;;;;;74.18;32.70;;;;;;;;;;5026750;28;20045;-80
2021/12/20 14:16:58;;;;;;;71.05;31.70;;;;;;;;;;5031389;28;20056;-80
2021/12/20 14:19:43;;;;;;;69.82;30.38;;;;;;;;;;5031123;28;20038;-79
2021/12/20 14:22:09;;;;;;;69.95;30.52;;;;;;;;;;5023734;28;20423;-80
2021/12/20 14:24:39;;;;;;;67.80;31.25;;;;;;;;;;5027426;28;20037;-79
2021/12/20 14:27:05;;;;;;;69.20;28.73;;;;;;;;;;5011199;28;20052;-80
2021/12/20 14:29:32;;;;;;;71.50;30.90;;;;;;;;;;5024933;28;20380;-80
2021/12/20 14:32:00;;;;;;;63.33;28.20;;;;;;;;;;5021804;28;20049;-79
2021/12/20 14:34:34;;;;;;;63.78;27.35;;;;;;;;;;5019100;28;20034;-79
2021/12/20 14:37:12;;;;;;;56.95;27.65;;;;;;;;;;5017971;28;20422;-80
2021/12/20 14:39:45;;;;;;;71.28;31.38;;;;;;;;;;5029420;28;20107;-79
2021/12/20 14:42:11;;;;;;;72.97;31.92;;;;;;;;;;5030874;28;20067;-79